Time;durP1;ratioP1;P1;durP2;ratioP2;P2;SDS_P1;SDS_P2;PMS_P1;PMS_P2;Temp;Humidity;BMP_temperature;BMP_pressure;BME280_temperature;BME280_humidity;BME280_pressure;Samples;Min_cycle;Max_cycle;Signal;HPM_P1;HPM_P2
2023/03/13 00:01:25;;;;;;;0.80;0.70;;;;;;;6.40;68.06;97618.41;6271956;28;20229;-38
2023/03/13 00:04:27;;;;;;;1.37;0.73;;;;;;;6.44;67.90;97614.31;6288158;28;20232;-37
2023/03/13 00:07:30;;;;;;;0.80;0.67;;;;;;;6.17;67.70;97576.69;6292796;28;20291;-38
2023/03/13 00:10:35;;;;;;;0.83;0.80;;;;;;;6.39;67.88;97604.38;6293198;28;20231;-38
2023/03/13 00:13:37;;;;;;;0.73;0.60;;;;;;;6.58;67.61;97607.06;6292414;28;20238;-37
2023/03/13 00:16:40;;;;;;;1.90;0.90;;;;;;;6.59;67.15;97603.38;6289992;28;20236;-38
2023/03/13 00:19:42;;;;;;;4.57;1.10;;;;;;;6.45;66.99;97581.53;6291029;28;20275;-38
2023/03/13 00:22:44;;;;;;;1.50;0.90;;;;;;;6.59;67.30;97590.97;6294118;28;20234;-39
2023/03/13 00:25:46;;;;;;;2.10;0.60;;;;;;;6.64;66.74;97585.00;6291999;28;20227;-38
2023/03/13 00:28:49;;;;;;;2.30;0.60;;;;;;;6.68;67.04;97589.66;6293327;28;20640;-38
2023/03/13 00:31:51;;;;;;;1.03;0.80;;;;;;;6.65;67.01;97583.97;6287988;28;20268;-38
2023/03/13 00:34:53;;;;;;;3.00;0.80;;;;;;;6.61;67.01;97574.88;6273205;28;20228;-38
2023/03/13 00:37:55;;;;;;;1.10;0.93;;;;;;;6.57;67.27;97571.84;6282140;28;20634;-38
2023/03/13 00:41:18;;;;;;;1.00;0.90;;;;;;;6.48;68.20;97565.22;6271810;28;20601;-38
2023/03/13 00:44:20;;;;;;;1.17;0.70;;;;;;;6.45;67.30;97549.75;6272355;28;20699;-38
2023/03/13 00:47:22;;;;;;;2.10;0.70;;;;;;;6.65;67.13;97547.75;6289788;28;20254;-38
2023/03/13 00:50:24;;;;;;;1.70;0.70;;;;;;;6.39;67.19;97527.63;6286190;28;20837;-38
2023/03/13 00:53:27;;;;;;;2.20;0.63;;;;;;;6.44;66.64;97554.25;6287981;28;20231;-38
2023/03/13 00:56:29;;;;;;;2.07;0.67;;;;;;;6.26;67.61;97553.44;6275362;28;20384;-38
2023/03/13 00:59:31;;;;;;;1.73;0.83;;;;;;;6.18;67.77;97549.22;6292024;28;20332;-38
2023/03/13 01:02:33;;;;;;;1.20;0.90;;;;;;;6.03;67.80;97548.72;6289922;28;20226;-38
2023/03/13 01:05:35;;;;;;;0.77;0.60;;;;;;;5.92;68.01;97556.34;6271998;28;20227;-38
2023/03/13 01:08:38;;;;;;;1.63;0.70;;;;;;;5.92;68.35;97551.06;6291454;28;20282;-38
2023/03/13 01:11:41;;;;;;;1.43;0.97;;;;;;;5.81;68.45;97537.66;6293720;28;20310;-38
2023/03/13 01:14:43;;;;;;;1.43;0.77;;;;;;;5.89;68.83;97540.06;6284944;28;20321;-38
2023/03/13 01:17:45;;;;;;;2.00;0.70;;;;;;;5.89;68.54;97535.56;6293453;28;20267;-38
2023/03/13 01:20:47;;;;;;;1.10;0.60;;;;;;;5.88;68.46;97541.91;6289496;28;20701;-38
2023/03/13 01:23:51;;;;;;;2.03;0.70;;;;;;;5.85;68.92;97538.88;6269202;28;20827;-38
2023/03/13 01:26:53;;;;;;;1.07;0.90;;;;;;;5.82;68.79;97542.75;6290541;28;20312;-38
2023/03/13 01:29:57;;;;;;;0.90;0.50;;;;;;;5.74;68.92;97547.50;6273832;28;20224;-37
2023/03/13 01:33:01;;;;;;;0.90;0.80;;;;;;;5.59;68.09;97537.22;6289052;28;20242;-37
2023/03/13 01:36:03;;;;;;;2.37;0.73;;;;;;;5.40;68.21;97523.91;6290397;28;20256;-37
2023/03/13 01:39:05;;;;;;;3.30;0.67;;;;;;;5.31;68.22;97522.53;6271026;28;20230;-37
2023/03/13 01:42:07;;;;;;;0.93;0.50;;;;;;;5.17;67.98;97521.81;6271315;28;20524;-38
2023/03/13 01:45:47;;;;;;;1.43;0.70;;;;;;;5.04;68.39;97526.34;6271337;28;20574;-37
2023/03/13 01:49:16;;;;;;;1.13;0.53;;;;;;;4.85;68.52;97526.22;6276824;28;20705;-37
2023/03/13 01:52:48;;;;;;;0.87;0.63;;;;;;;4.78;68.98;97524.59;6271281;28;20225;-37
2023/03/13 01:55:59;;;;;;;2.20;0.80;;;;;;;4.37;69.29;97473.00;6275065;28;20226;-37
2023/03/13 01:59:05;;;;;;;1.40;0.60;;;;;;;4.58;69.10;97524.66;6274134;28;20226;-37
2023/03/13 02:02:08;;;;;;;2.33;0.93;;;;;;;4.48;69.38;97524.28;6276669;28;20230;-37
2023/03/13 02:05:10;;;;;;;2.07;0.80;;;;;;;4.44;69.78;97525.75;6293669;28;20226;-37
2023/03/13 02:08:49;;;;;;;1.50;0.70;;;;;;;4.31;70.01;97503.66;6296380;28;20700;-37
2023/03/13 02:12:07;;;;;;;2.33;0.90;;;;;;;4.42;69.98;97530.41;6187166;28;20221;-37
2023/03/13 02:15:13;;;;;;;2.67;0.60;;;;;;;4.45;70.26;97527.34;6173303;28;20320;-37
2023/03/13 02:18:16;;;;;;;1.83;0.70;;;;;;;4.40;70.52;97527.97;6188132;28;20225;-37
2023/03/13 02:21:35;;;;;;;1.23;0.70;;;;;;;4.39;71.06;97524.53;6192094;28;20208;-36
2023/03/13 02:24:44;;;;;;;1.93;0.90;;;;;;;3.28;71.19;97345.28;6188906;28;20225;-37
2023/03/13 02:27:49;;;;;;;1.30;0.60;;;;;;;4.38;71.02;97528.19;6193815;28;20229;-37
2023/03/13 02:30:55;;;;;;;1.33;0.87;;;;;;;4.49;71.69;97526.75;6171631;28;20312;-37
2023/03/13 02:34:00;;;;;;;1.60;0.87;;;;;;;4.25;72.00;97480.75;6193145;28;20609;-37
2023/03/13 02:37:05;;;;;;;2.37;1.00;;;;;;;4.39;72.25;97515.81;6191895;28;20234;-37
2023/03/13 02:40:11;;;;;;;2.23;1.10;;;;;;;4.57;72.92;97533.59;6191277;28;20232;-39
2023/03/13 02:43:30;;;;;;;1.50;0.70;;;;;;;4.53;72.44;97519.19;6190244;28;20225;-37
2023/03/13 02:46:47;;;;;;;1.97;0.70;;;;;;;4.65;72.57;97528.91;6224536;28;20226;-37
2023/03/13 02:49:49;;;;;;;0.97;0.70;;;;;;;4.59;72.82;97519.22;6292868;28;20552;-39
2023/03/13 02:52:57;;;;;;;1.20;0.60;;;;;;;4.47;72.83;97488.38;6275302;28;20230;-38
2023/03/13 02:56:00;;;;;;;1.40;0.80;;;;;;;4.65;72.76;97510.44;6282476;28;20383;-37
2023/03/13 02:59:03;;;;;;;2.83;0.97;;;;;;;4.79;72.62;97534.16;6295538;28;20226;-37
2023/03/13 03:02:06;;;;;;;1.60;0.70;;;;;;;4.92;72.65;97540.19;6278630;28;20222;-36
2023/03/13 03:05:12;;;;;;;1.67;0.97;;;;;;;4.97;72.57;97541.41;6292288;28;20233;-37
2023/03/13 03:08:14;;;;;;;2.27;0.83;;;;;;;5.01;72.70;97538.13;6274110;28;20227;-37
2023/03/13 03:11:16;;;;;;;1.90;0.80;;;;;;;4.86;72.89;97519.91;6290972;28;20415;-37
2023/03/13 03:14:22;;;;;;;4.10;0.87;;;;;;;5.04;72.71;97547.47;6274286;28;20233;-38
2023/03/13 03:17:25;;;;;;;1.23;0.80;;;;;;;5.01;73.00;97548.69;6274422;28;20232;-37
2023/03/13 03:20:29;;;;;;;1.80;0.70;;;;;;;5.02;72.92;97545.03;6291410;28;20218;-37
2023/03/13 03:23:32;;;;;;;1.53;0.70;;;;;;;5.01;72.94;97543.41;6273948;28;20229;-37
2023/03/13 03:26:34;;;;;;;2.60;0.97;;;;;;;4.98;73.04;97543.03;6270923;28;20219;-37
2023/03/13 03:29:41;;;;;;;1.80;0.67;;;;;;;4.97;73.21;97550.13;6256466;28;20237;-37
2023/03/13 03:32:43;;;;;;;0.90;0.60;;;;;;;4.91;72.63;97549.13;6273158;28;20237;-37
2023/03/13 03:35:46;;;;;;;1.53;0.63;;;;;;;4.87;72.79;97547.91;6289985;28;20225;-37
2023/03/13 03:38:49;;;;;;;1.47;0.60;;;;;;;4.82;72.75;97546.94;6272216;28;20721;-37
2023/03/13 03:41:54;;;;;;;1.77;0.67;;;;;;;4.72;72.41;97549.19;6292317;28;20700;-37
2023/03/13 03:44:57;;;;;;;1.00;0.60;;;;;;;4.62;72.35;97546.97;6277426;28;20219;-37
2023/03/13 03:47:59;;;;;;;1.13;1.03;;;;;;;4.34;71.84;97518.25;6286811;28;20831;-37
2023/03/13 03:51:02;;;;;;;2.83;0.60;;;;;;;4.40;71.79;97546.44;6290184;28;20685;-36
2023/03/13 03:54:06;;;;;;;2.00;0.60;;;;;;;4.26;71.60;97550.91;6281795;28;20707;-37
2023/03/13 03:57:09;;;;;;;2.57;0.77;;;;;;;4.20;72.05;97545.66;6290834;28;20585;-37
2023/03/13 04:00:14;;;;;;;1.10;0.50;;;;;;;4.10;71.70;97557.41;6289491;28;20735;-37
2023/03/13 04:03:24;;;;;;;1.90;0.57;;;;;;;4.08;71.73;97540.16;6267570;28;20283;-37
2023/03/13 04:06:27;;;;;;;0.90;0.70;;;;;;;4.03;71.76;97550.50;6272690;28;20229;-37
2023/03/13 04:09:29;;;;;;;1.90;0.70;;;;;;;3.99;72.38;97559.84;6282835;28;20302;-37
2023/03/13 04:12:34;;;;;;;2.37;0.83;;;;;;;4.00;72.33;97549.09;6274922;28;20783;-37
2023/03/13 04:15:38;;;;;;;2.33;0.60;;;;;;;3.69;72.25;97504.09;6272473;28;20230;-37
2023/03/13 04:18:42;;;;;;;1.80;0.80;;;;;;;3.88;72.01;97537.53;6268058;28;20658;-37
2023/03/13 04:21:45;;;;;;;1.73;0.70;;;;;;;3.93;72.35;97547.47;6277018;28;20511;-37
2023/03/13 04:24:50;;;;;;;1.00;0.57;;;;;;;3.87;72.17;97534.09;6269974;28;20229;-37
2023/03/13 04:27:54;;;;;;;1.43;0.77;;;;;;;3.85;72.33;97538.78;6281230;28;20241;-37
2023/03/13 04:31:01;;;;;;;1.17;0.60;;;;;;;3.83;72.10;97537.34;6272010;28;20264;-37
2023/03/13 04:34:23;;;;;;;2.00;0.87;;;;;;;3.83;72.83;97532.88;6246278;28;20697;-37
2023/03/13 04:37:48;;;;;;;1.40;0.60;;;;;;;3.87;72.61;97539.38;6280499;28;20247;-37
2023/03/13 04:41:01;;;;;;;1.37;0.70;;;;;;;3.91;72.41;97537.16;6275322;28;20701;-37
2023/03/13 04:44:22;;;;;;;2.93;0.77;;;;;;;3.91;72.45;97526.59;6292784;28;20242;-37
2023/03/13 04:47:38;;;;;;;1.27;0.60;;;;;;;3.93;72.52;97521.94;6271343;28;20607;-37
2023/03/13 04:50:58;;;;;;;1.90;0.77;;;;;;;3.96;72.52;97526.00;6290344;28;20261;-37
2023/03/13 04:54:21;;;;;;;2.77;0.80;;;;;;;3.99;72.53;97520.31;6265692;28;20234;-37
2023/03/13 04:57:34;;;;;;;2.10;0.60;;;;;;;4.04;72.31;97523.13;6292819;28;20245;-37
2023/03/13 05:01:05;;;;;;;2.37;0.87;;;;;;;4.02;72.46;97512.81;6276716;28;20242;-37
2023/03/13 05:04:27;;;;;;;1.20;0.60;;;;;;;4.01;72.42;97510.38;6288877;28;20259;-37
2023/03/13 05:07:48;;;;;;;0.77;0.47;;;;;;;4.03;72.31;97503.88;6291471;28;20234;-37
2023/03/13 05:11:19;;;;;;;0.70;0.50;;;;;;;3.97;72.13;97483.63;6267332;28;20225;-38
2023/03/13 05:14:41;;;;;;;0.93;0.70;;;;;;;4.07;72.43;97499.00;6285877;28;20230;-37
2023/03/13 05:18:15;;;;;;;1.80;0.70;;;;;;;4.07;72.30;97497.19;6257335;28;20230;-37
2023/03/13 05:21:32;;;;;;;1.13;0.50;;;;;;;4.06;72.32;97494.75;6287538;28;20230;-37
2023/03/13 05:25:07;;;;;;;1.43;0.60;;;;;;;3.99;72.05;97502.69;6268589;28;20222;-37
2023/03/13 05:28:29;;;;;;;1.20;0.70;;;;;;;3.90;72.00;97490.72;6286084;28;20234;-38
2023/03/13 05:32:00;;;;;;;2.10;0.67;;;;;;;3.86;72.29;97498.22;6259496;28;20234;-37
2023/03/13 05:35:21;;;;;;;0.90;0.40;;;;;;;3.84;72.10;97499.44;6295084;28;20302;-37
2023/03/13 05:38:49;;;;;;;2.10;0.90;;;;;;;3.87;72.46;97496.41;6290625;28;20235;-37
2023/03/13 05:42:03;;;;;;;2.80;1.50;;;;;;;3.75;73.35;97480.41;6282402;28;20237;-36
2023/03/13 05:45:16;;;;;;;3.93;2.50;;;;;;;3.93;72.85;97478.97;6293140;28;20214;-37
2023/03/13 05:48:36;;;;;;;5.83;3.20;;;;;;;4.13;72.41;97490.28;6289397;28;20229;-37
2023/03/13 05:51:56;;;;;;;5.50;3.37;;;;;;;4.22;72.45;97477.69;6275156;28;20734;-37
2023/03/13 05:55:17;;;;;;;3.93;2.10;;;;;;;4.27;72.42;97476.06;6294691;28;20217;-37
2023/03/13 05:58:48;;;;;;;2.70;1.30;;;;;;;4.36;72.49;97481.94;6282233;28;20274;-37
2023/03/13 06:02:10;;;;;;;2.63;1.50;;;;;;;4.49;72.47;97463.44;6291183;28;20229;-37
2023/03/13 06:05:17;;;;;;;1.60;1.07;;;;;;;4.63;72.41;97462.38;6279534;28;20264;-38
2023/03/13 06:08:19;;;;;;;1.37;0.80;;;;;;;4.80;72.27;97467.16;6276204;28;20328;-36
2023/03/13 06:11:23;;;;;;;1.53;0.60;;;;;;;4.94;72.17;97460.00;6295588;28;20236;-38
2023/03/13 06:14:26;;;;;;;2.80;1.10;;;;;;;5.05;71.73;97462.78;6281823;28;20729;-38
2023/03/13 06:17:51;;;;;;;1.63;0.80;;;;;;;5.07;71.64;97463.34;6277671;28;20235;-39
2023/03/13 06:20:58;;;;;;;1.30;0.70;;;;;;;5.17;71.34;97450.53;6274273;28;20229;-39
2023/03/13 06:24:00;;;;;;;1.07;0.60;;;;;;;5.20;71.05;97433.44;6289357;28;20648;-38
2023/03/13 06:27:02;;;;;;;1.57;0.80;;;;;;;5.41;71.11;97454.19;6291824;28;20654;-37
2023/03/13 06:30:05;;;;;;;1.00;0.63;;;;;;;5.56;70.93;97439.88;6277961;28;20221;-38
2023/03/13 06:33:07;;;;;;;2.73;0.80;;;;;;;5.50;70.46;97404.56;6291371;28;20238;-38
2023/03/13 06:36:09;;;;;;;1.60;0.73;;;;;;;5.83;70.13;97443.94;6249338;28;1291509;-37
2023/03/13 06:39:11;;;;;;;2.57;0.83;;;;;;;5.93;69.35;97440.81;6292637;28;20217;-38
2023/03/13 06:42:13;;;;;;;2.67;0.70;;;;;;;6.04;68.41;97436.66;6293560;28;20251;-37
2023/03/13 06:45:15;;;;;;;2.00;1.00;;;;;;;5.70;68.73;97388.53;6295031;28;20693;-38
2023/03/13 06:48:18;;;;;;;2.10;0.80;;;;;;;5.76;68.95;97427.28;6290434;28;20224;-38
2023/03/13 06:51:21;;;;;;;3.57;0.90;;;;;;;5.74;69.30;97429.38;6293112;28;20220;-38
2023/03/13 06:54:23;;;;;;;0.97;0.60;;;;;;;5.77;69.16;97418.38;6292955;28;20294;-38
2023/03/13 06:57:25;;;;;;;1.63;0.80;;;;;;;5.79;69.26;97413.66;6292742;28;20233;-38
2023/03/13 07:00:27;;;;;;;3.23;0.90;;;;;;;5.77;69.33;97417.56;6275833;28;20567;-38
2023/03/13 07:03:29;;;;;;;1.47;0.80;;;;;;;5.76;69.46;97408.00;6293875;28;20619;-38
2023/03/13 07:06:31;;;;;;;1.13;0.60;;;;;;;5.87;69.13;97402.00;6295771;28;20238;-38
2023/03/13 07:09:33;;;;;;;2.50;1.10;;;;;;;5.97;68.97;97402.34;6294782;28;20749;-38
2023/03/13 07:12:36;;;;;;;1.47;0.93;;;;;;;6.09;69.13;97387.34;6291634;28;20717;-38
2023/03/13 07:15:38;;;;;;;0.73;0.50;;;;;;;6.30;68.61;97388.75;6275460;28;20750;-38
2023/03/13 07:18:41;;;;;;;2.13;0.70;;;;;;;6.40;68.33;97382.94;6290379;28;20276;-38
2023/03/13 07:21:43;;;;;;;1.43;0.70;;;;;;;6.83;67.11;97380.13;6294987;28;20599;-38
2023/03/13 07:24:45;;;;;;;1.67;0.80;;;;;;;7.25;66.12;97374.84;6274374;28;20584;-38
2023/03/13 07:27:51;;;;;;;1.37;0.67;;;;;;;7.67;64.87;97357.00;6294911;28;20228;-38
2023/03/13 07:30:53;;;;;;;0.70;0.60;;;;;;;8.28;63.65;97366.28;6293377;28;20237;-38
2023/03/13 07:33:55;;;;;;;1.20;0.50;;;;;;;8.89;61.19;97356.03;6291138;28;20807;-38
2023/03/13 07:36:57;;;;;;;3.90;1.10;;;;;;;9.37;59.94;97356.59;6292837;28;20236;-38
2023/03/13 07:39:59;;;;;;;1.20;0.60;;;;;;;9.76;59.70;97352.13;6286082;28;20251;-38
2023/03/13 07:43:02;;;;;;;0.50;0.50;;;;;;;10.23;58.90;97351.66;6291151;28;20221;-38
2023/03/13 07:46:06;;;;;;;0.67;0.50;;;;;;;10.59;58.07;97351.09;6292926;28;20587;-38
2023/03/13 07:49:08;;;;;;;2.93;0.53;;;;;;;10.88;57.38;97331.38;6289889;28;20324;-38
2023/03/13 07:52:10;;;;;;;1.90;0.43;;;;;;;11.46;56.29;97343.06;6289515;28;20236;-38
2023/03/13 07:55:13;;;;;;;0.73;0.50;;;;;;;12.04;55.07;97341.34;6296565;28;20232;-38
2023/03/13 07:58:15;;;;;;;0.60;0.57;;;;;;;12.34;50.64;97327.31;6291721;28;20285;-38
2023/03/13 08:01:20;;;;;;;0.60;0.50;;;;;;;13.09;48.17;97339.25;6269152;28;20241;-38
2023/03/13 08:04:26;;;;;;;0.67;0.40;;;;;;;13.49;47.39;97337.69;6289763;28;20720;-38
2023/03/13 08:07:28;;;;;;;1.47;0.70;;;;;;;13.88;44.43;97329.06;6271476;28;20236;-37
2023/03/13 08:10:30;;;;;;;1.87;0.70;;;;;;;14.70;41.47;97325.03;6270662;28;20692;-38
2023/03/13 08:13:34;;;;;;;1.17;0.80;;;;;;;16.84;38.41;97326.75;6290613;28;20692;-38
2023/03/13 08:16:36;;;;;;;0.90;0.53;;;;;;;18.42;33.75;97324.06;6290334;28;20225;-38
2023/03/13 08:19:38;;;;;;;1.13;0.70;;;;;;;19.18;30.54;97317.03;6290155;28;20237;-38
2023/03/13 08:22:40;;;;;;;3.10;0.80;;;;;;;19.20;29.76;97287.81;6292237;28;20310;-38
2023/03/13 08:25:42;;;;;;;1.77;0.80;;;;;;;20.43;28.69;97306.22;6290039;28;20222;-39
2023/03/13 08:28:46;;;;;;;1.37;0.70;;;;;;;20.57;27.94;97309.66;6294686;28;20498;-38
2023/03/13 08:31:51;;;;;;;1.30;0.70;;;;;;;19.44;28.50;97303.69;6288968;28;20317;-39
2023/03/13 08:34:53;;;;;;;1.03;0.70;;;;;;;18.03;28.66;97291.16;6293050;28;20717;-39
2023/03/13 08:37:55;;;;;;;0.93;0.77;;;;;;;16.69;30.07;97288.19;6291407;28;20242;-39
2023/03/13 08:40:57;;;;;;;1.90;0.73;;;;;;;16.24;31.31;97298.47;6289023;28;20805;-39
2023/03/13 08:43:59;;;;;;;1.90;0.80;;;;;;;15.42;31.92;97270.88;6292886;28;20245;-39
2023/03/13 08:47:04;;;;;;;0.80;0.63;;;;;;;14.91;33.09;97279.31;6292812;28;20617;-39
2023/03/13 08:50:07;;;;;;;2.10;0.87;;;;;;;14.74;34.23;97276.22;6291748;28;20250;-39
2023/03/13 08:53:09;;;;;;;2.47;0.80;;;;;;;14.83;34.61;97290.66;6284288;28;20314;-39
2023/03/13 08:56:14;;;;;;;0.90;0.77;;;;;;;14.61;34.25;97266.91;6290729;28;20761;-39
2023/03/13 08:59:16;;;;;;;1.40;0.87;;;;;;;14.84;35.16;97302.97;6289051;28;20367;-39
2023/03/13 09:02:19;;;;;;;1.60;0.90;;;;;;;14.80;35.22;97299.25;6288290;28;20775;-39
2023/03/13 09:05:21;;;;;;;0.87;0.70;;;;;;;14.55;35.78;97292.16;6290692;28;20222;-39
2023/03/13 09:08:24;;;;;;;2.43;0.83;;;;;;;14.32;35.90;97261.41;6288567;28;20579;-39
2023/03/13 09:11:26;;;;;;;1.43;0.80;;;;;;;14.28;35.53;97274.53;6285186;28;20707;-39
2023/03/13 09:14:29;;;;;;;1.53;1.10;;;;;;;14.49;35.87;97306.66;6286368;28;20323;-39
2023/03/13 09:17:31;;;;;;;3.30;1.27;;;;;;;14.48;36.81;97299.69;6285807;28;20226;-39
2023/03/13 09:20:33;;;;;;;1.93;1.00;;;;;;;14.59;36.61;97296.69;6288672;28;20616;-39
2023/03/13 09:23:35;;;;;;;2.27;1.07;;;;;;;14.50;37.05;97260.00;6296333;28;20642;-39
2023/03/13 09:26:37;;;;;;;3.60;1.20;;;;;;;14.78;35.95;97310.25;6290237;28;20238;-39
2023/03/13 09:29:47;;;;;;;2.53;1.43;;;;;;;14.73;36.43;97312.97;6287857;28;20582;-39
2023/03/13 09:32:49;;;;;;;2.53;1.40;;;;;;;14.57;37.01;97257.81;6272751;28;20637;-40
2023/03/13 09:35:51;;;;;;;1.70;1.13;;;;;;;14.64;36.61;97298.53;6290359;28;20240;-41
2023/03/13 09:38:55;;;;;;;2.67;1.10;;;;;;;14.31;37.14;97274.00;6292019;28;20238;-39
2023/03/13 09:42:03;;;;;;;2.47;1.57;;;;;;;14.28;37.03;97295.97;6289034;28;20624;-39
2023/03/13 09:45:15;;;;;;;2.83;1.20;;;;;;;14.32;38.58;97274.81;6289473;28;20586;-39
2023/03/13 09:48:37;;;;;;;3.00;1.33;;;;;;;14.44;37.36;97288.69;6266776;28;20283;-38
2023/03/13 09:51:42;;;;;;;2.70;1.17;;;;;;;14.75;36.57;97280.50;6286924;28;20297;-39
2023/03/13 09:54:59;;;;;;;2.80;1.50;;;;;;;14.99;36.05;97284.09;6290625;28;20230;-39
2023/03/13 09:58:10;;;;;;;3.07;1.13;;;;;;;15.14;35.58;97265.19;6280724;28;20307;-39
2023/03/13 10:01:21;;;;;;;2.00;1.33;;;;;;;15.43;34.84;97286.69;6270693;28;20290;-39
2023/03/13 10:04:56;;;;;;;3.10;1.50;;;;;;;15.60;33.71;97280.06;6285333;28;20612;-39
2023/03/13 10:08:21;;;;;;;2.17;1.00;;;;;;;15.77;33.21;97271.63;6286506;28;20230;-39
2023/03/13 10:11:31;;;;;;;3.23;1.13;;;;;;;16.03;33.14;97258.69;6289806;28;20226;-39
2023/03/13 10:14:56;;;;;;;3.43;1.20;;;;;;;15.92;32.98;97210.47;6283564;28;20227;-38
2023/03/13 10:18:05;;;;;;;2.63;1.37;;;;;;;15.93;33.21;97184.38;6273423;28;20238;-39
2023/03/13 10:21:18;;;;;;;3.07;1.60;;;;;;;16.20;33.38;97226.75;6274856;28;20222;-38
2023/03/13 10:24:33;;;;;;;3.43;1.37;;;;;;;16.12;34.13;97241.66;6293260;28;21013;-39
2023/03/13 10:27:50;;;;;;;2.67;1.27;;;;;;;16.46;34.14;97241.47;6271192;28;20230;-39
2023/03/13 10:31:04;;;;;;;4.33;2.03;;;;;;;16.52;34.12;97228.75;6290006;28;20223;-39
2023/03/13 10:34:09;;;;;;;1.50;1.30;;;;;;;16.53;34.08;97235.72;6293467;28;20234;-38
2023/03/13 10:37:14;;;;;;;5.90;1.97;;;;;;;16.36;33.02;97227.38;6291992;28;20610;-38
2023/03/13 10:40:27;;;;;;;2.87;1.30;;;;;;;16.36;33.08;97222.78;6289984;28;20364;-39
2023/03/13 10:43:29;;;;;;;3.07;1.40;;;;;;;16.62;33.42;97222.41;6294936;28;20307;-39
2023/03/13 10:46:34;;;;;;;2.47;1.40;;;;;;;16.62;33.28;97228.59;6296060;28;20593;-39
2023/03/13 10:49:47;;;;;;;3.80;1.70;;;;;;;16.37;32.73;97216.31;6276225;28;20601;-39
2023/03/13 10:52:50;;;;;;;5.90;2.00;;;;;;;16.51;32.98;97214.50;6291716;28;20706;-39
2023/03/13 10:55:54;;;;;;;4.50;2.20;;;;;;;16.52;33.00;97207.22;6293147;28;20709;-38
2023/03/13 10:58:56;;;;;;;5.70;2.03;;;;;;;16.30;33.62;97190.88;6278216;28;20291;-38
2023/03/13 11:02:00;;;;;;;3.03;1.80;;;;;;;16.44;33.39;97214.06;6295215;28;20392;-38
2023/03/13 11:05:22;;;;;;;3.87;1.97;;;;;;;16.25;33.60;97216.75;6290311;28;20375;-38
2023/03/13 11:08:35;;;;;;;4.40;2.10;;;;;;;16.21;33.70;97206.88;6290138;28;20276;-39
2023/03/13 11:12:12;;;;;;;2.83;1.73;;;;;;;16.08;33.27;97213.75;6289634;28;20697;-38
2023/03/13 11:15:17;;;;;;;4.47;2.00;;;;;;;15.74;33.65;97212.00;6272175;28;20260;-38
2023/03/13 11:18:26;;;;;;;2.27;1.80;;;;;;;15.58;34.20;97215.91;6289887;28;20214;-38
2023/03/13 11:21:46;;;;;;;3.23;1.60;;;;;;;15.56;34.36;97220.75;6295360;28;20737;-38
2023/03/13 11:25:13;;;;;;;5.73;1.80;;;;;;;15.58;33.89;97218.59;6291365;28;20245;-39
2023/03/13 11:28:18;;;;;;;5.20;1.67;;;;;;;15.63;33.19;97218.59;6291872;28;20235;-37
2023/03/13 11:31:26;;;;;;;3.67;1.47;;;;;;;15.58;32.77;97220.50;6291569;28;20245;-37
2023/03/13 11:34:58;;;;;;;3.83;1.30;;;;;;;15.57;32.95;97208.16;6293561;28;20285;-39
2023/03/13 11:38:06;;;;;;;3.37;1.60;;;;;;;15.59;32.71;97189.88;6286475;28;20234;-39
2023/03/13 11:41:20;;;;;;;3.43;1.40;;;;;;;15.90;32.88;97209.13;6291455;28;20421;-39
2023/03/13 11:44:48;;;;;;;3.23;1.30;;;;;;;15.95;32.87;97203.69;6290045;28;20770;-38
2023/03/13 11:48:12;;;;;;;3.50;1.30;;;;;;;16.08;33.13;97204.88;6290485;28;20300;-39
2023/03/13 11:51:20;;;;;;;2.60;1.60;;;;;;;16.16;32.88;97197.00;6288627;28;20745;-38
2023/03/13 11:54:46;;;;;;;4.40;1.70;;;;;;;15.99;32.50;97196.66;6291074;28;20268;-39
2023/03/13 11:58:01;;;;;;;2.77;1.70;;;;;;;15.99;32.65;97200.16;6293902;28;20236;-39
2023/03/13 12:01:13;;;;;;;1.93;1.30;;;;;;;15.73;31.86;97172.81;6290411;28;20603;-39
2023/03/13 12:04:34;;;;;;;3.07;1.30;;;;;;;15.77;31.65;97191.03;6290701;28;20234;-39
2023/03/13 12:07:47;;;;;;;1.50;1.20;;;;;;;15.54;31.25;97160.41;6288892;28;20280;-38
2023/03/13 12:11:16;;;;;;;3.70;1.13;;;;;;;15.63;30.72;97154.13;6291049;28;20254;-38
2023/03/13 12:14:27;;;;;;;2.60;1.30;;;;;;;15.65;30.58;97170.75;6280657;28;20589;-39
2023/03/13 12:17:39;;;;;;;3.03;1.30;;;;;;;15.67;31.29;97173.16;6274071;28;20681;-38
2023/03/13 12:20:58;;;;;;;2.30;1.43;;;;;;;15.69;31.09;97142.25;6287514;28;20231;-38
2023/03/13 12:24:13;;;;;;;3.73;1.40;;;;;;;15.82;30.83;97156.88;6285085;28;20227;-34
2023/03/13 12:27:31;;;;;;;2.20;1.23;;;;;;;15.91;30.79;97143.56;6281741;28;20262;-39
2023/03/13 12:30:42;;;;;;;1.80;1.10;;;;;;;15.72;30.50;97104.09;6271637;28;20237;-39
2023/03/13 12:34:11;;;;;;;1.23;1.10;;;;;;;16.02;30.31;97141.56;6278942;28;20754;-39
2023/03/13 12:37:25;;;;;;;1.43;1.00;;;;;;;15.98;30.62;97149.41;6284327;28;20669;-38
2023/03/13 12:40:33;;;;;;;2.73;1.30;;;;;;;15.98;30.61;97152.88;6286901;28;20252;-38
2023/03/13 12:43:39;;;;;;;1.47;1.20;;;;;;;15.85;30.76;97102.56;6269445;28;20268;-38
2023/03/13 12:46:56;;;;;;;3.03;1.17;;;;;;;15.99;30.32;97113.38;6284580;28;20234;-39
2023/03/13 12:50:08;;;;;;;2.27;1.00;;;;;;;15.41;30.79;97039.19;6283210;28;20263;-38
2023/03/13 12:53:23;;;;;;;2.53;1.37;;;;;;;15.92;30.80;97134.44;6280506;28;20318;-39
2023/03/13 12:56:46;;;;;;;1.67;1.10;;;;;;;15.78;31.11;97120.13;6279766;28;20233;-42
2023/03/13 12:59:53;;;;;;;1.90;1.00;;;;;;;15.65;31.19;97105.50;6265049;28;20253;-39
2023/03/13 13:03:06;;;;;;;2.60;1.20;;;;;;;15.58;31.57;97113.91;6282137;28;20371;-39
2023/03/13 13:06:15;;;;;;;3.80;1.67;;;;;;;15.56;31.90;97112.56;6282003;28;20226;-38
2023/03/13 13:09:27;;;;;;;2.67;1.40;;;;;;;15.49;32.36;97107.56;6282240;28;20352;-39
2023/03/13 13:12:29;;;;;;;2.87;1.40;;;;;;;15.44;32.45;97108.41;6282764;28;20244;-39
2023/03/13 13:15:32;;;;;;;4.17;1.80;;;;;;;15.40;32.58;97107.38;6277011;28;20746;-38
2023/03/13 13:18:34;;;;;;;3.83;1.30;;;;;;;15.36;32.55;97097.50;6281415;28;20712;-39
2023/03/13 13:21:37;;;;;;;2.07;1.30;;;;;;;15.35;32.93;97077.94;6280508;28;20236;-39
2023/03/13 13:24:48;;;;;;;3.90;1.30;;;;;;;15.36;32.37;97068.78;6280845;28;20246;-39
2023/03/13 13:27:50;;;;;;;3.20;1.27;;;;;;;15.33;32.31;97061.31;6263771;28;20231;-39
2023/03/13 13:30:55;;;;;;;3.13;1.60;;;;;;;15.35;32.32;97061.03;6282130;28;20224;-40
2023/03/13 13:33:57;;;;;;;1.60;1.33;;;;;;;15.38;32.81;97057.78;6281731;28;20264;-40
2023/03/13 13:37:11;;;;;;;1.47;1.23;;;;;;;15.48;32.98;97061.13;6280056;28;20764;-39
2023/03/13 13:40:28;;;;;;;1.50;1.40;;;;;;;15.54;33.00;97055.69;6283958;28;20237;-46
2023/03/13 13:43:33;;;;;;;1.60;1.20;;;;;;;15.62;32.83;97047.81;6281927;28;20323;-38
2023/03/13 13:46:35;;;;;;;2.23;1.30;;;;;;;15.69;32.26;97053.63;6282710;28;20234;-39
2023/03/13 13:49:52;;;;;;;2.10;1.20;;;;;;;15.79;32.70;97036.56;6277952;28;20245;-39
2023/03/13 13:53:29;;;;;;;2.50;1.43;;;;;;;15.85;32.26;97029.22;6280348;28;20321;-39
2023/03/13 13:56:41;;;;;;;3.53;1.17;;;;;;;15.99;32.38;97019.34;6289634;28;20675;-38
2023/03/13 13:59:48;;;;;;;3.07;1.17;;;;;;;15.99;32.08;97028.22;6287357;28;20222;-38
2023/03/13 14:02:55;;;;;;;3.23;1.33;;;;;;;16.01;32.49;97025.25;6288075;28;20229;-39
2023/03/13 14:06:18;;;;;;;2.33;1.37;;;;;;;16.09;32.41;97016.50;6283819;28;20655;-39
2023/03/13 14:09:45;;;;;;;4.47;1.30;;;;;;;16.10;31.82;97003.84;6286905;28;20233;-40
2023/03/13 14:12:55;;;;;;;3.20;1.60;;;;;;;16.07;31.12;96999.88;6289873;28;20655;-38
2023/03/13 14:16:19;;;;;;;3.80;1.90;;;;;;;16.09;31.82;96994.22;6285160;28;20242;-39
2023/03/13 14:19:41;;;;;;;3.03;1.40;;;;;;;16.00;31.18;96978.75;6284183;28;20235;-39
2023/03/13 14:22:48;;;;;;;4.60;1.57;;;;;;;16.00;31.44;96970.69;6283697;28;20311;-38
2023/03/13 14:25:50;;;;;;;1.67;1.20;;;;;;;15.96;31.33;96971.59;6289171;28;20229;-38
2023/03/13 14:28:58;;;;;;;2.23;1.77;;;;;;;15.95;31.08;96959.25;6286720;28;20785;-38
2023/03/13 14:32:00;;;;;;;1.70;1.33;;;;;;;15.93;32.00;96959.53;6285850;28;20724;-38
2023/03/13 14:35:08;;;;;;;1.30;1.20;;;;;;;15.90;31.49;96957.44;6285136;28;20248;-38
2023/03/13 14:38:18;;;;;;;1.40;1.20;;;;;;;15.89;31.52;96952.34;6285127;28;20320;-38
2023/03/13 14:41:46;;;;;;;2.60;1.27;;;;;;;15.81;31.81;96942.28;6285722;28;20299;-38
2023/03/13 14:44:48;;;;;;;1.20;1.10;;;;;;;15.74;32.17;96938.09;6285657;28;20724;-38
2023/03/13 14:47:52;;;;;;;1.37;1.00;;;;;;;15.68;31.67;96946.53;6290759;28;20241;-38
2023/03/13 14:51:02;;;;;;;4.67;1.20;;;;;;;15.66;32.12;96941.44;6277635;28;20229;-37
2023/03/13 14:54:53;;;;;;;1.53;1.10;;;;;;;15.54;31.90;96932.22;6285616;28;20297;-38